TimeEST,TemperatureF,Dew PointF,Humidity,Sea Level PressureIn,VisibilityMPH,Wind Direction,Wind SpeedMPH,Gust SpeedMPH,PrecipitationIn,Events,Conditions,WindDirDegrees,DateUTC
12:56 AM,9.0,-0.0,67,30.38,-9999.0,South,5.8,-,N/A,,Unknown,180,2013-01-25 05:56:00
1:56 AM,10.0,3.0,73,30.35,-9999.0,South,3.5,-,N/A,,Unknown,180,2013-01-25 06:56:00
2:56 AM,10.0,3.9,76,30.31,-9999.0,South,4.6,-,0.01,,Unknown,190,2013-01-25 07:56:00
3:56 AM,10.0,3.9,76,30.27,-9999.0,South,4.6,-,0.01,,Unknown,170,2013-01-25 08:56:00
4:56 AM,10.0,3.9,76,30.24,-9999.0,South,4.6,-,0.02,,Unknown,170,2013-01-25 09:56:00
5:56 AM,9.0,3.0,77,30.19,-9999.0,South,4.6,-,0.01,,Unknown,170,2013-01-25 10:56:00
6:56 AM,10.0,3.9,76,30.15,-9999.0,SSW,4.6,-,0.01,,Unknown,200,2013-01-25 11:56:00
7:56 AM,10.9,5.0,77,30.12,-9999.0,South,3.5,-,N/A,,Unknown,190,2013-01-25 12:56:00
8:56 AM,10.9,5.0,77,30.09,-9999.0,Variable,5.8,-,0.01,,Unknown,0,2013-01-25 13:56:00
9:56 AM,12.9,7.0,77,30.06,-9999.0,SSW,3.5,-,0.01,,Unknown,200,2013-01-25 14:56:00
10:56 AM,15.1,10.0,80,30.04,-9999.0,South,3.5,-,0.01,,Unknown,180,2013-01-25 15:56:00
11:56 AM,17.1,10.0,74,30.01,-9999.0,South,8.1,-,N/A,,Unknown,180,2013-01-25 16:56:00
12:56 PM,18.0,10.9,74,29.97,-9999.0,South,4.6,-,0.01,,Unknown,190,2013-01-25 17:56:00
1:56 PM,19.0,12.0,74,29.96,-9999.0,SW,4.6,-,N/A,,Unknown,230,2013-01-25 18:56:00
2:56 PM,19.0,10.0,68,29.95,-9999.0,Calm,Calm,-,0.01,,Unknown,0,2013-01-25 19:56:00
3:56 PM,19.0,12.0,74,29.95,-9999.0,NE,4.6,-,N/A,,Unknown,40,2013-01-25 20:56:00
4:56 PM,15.1,10.0,80,29.99,-9999.0,Calm,Calm,-,N/A,,Unknown,0,2013-01-25 21:56:00
5:56 PM,16.0,10.9,81,30.00,-9999.0,Calm,Calm,-,N/A,,Unknown,0,2013-01-25 22:56:00
6:56 PM,12.0,7.0,80,30.01,-9999.0,South,4.6,-,N/A,,Unknown,190,2013-01-25 23:56:00
7:56 PM,10.0,5.0,80,30.02,-9999.0,South,5.8,-,N/A,,Unknown,190,2013-01-26 00:56:00
8:56 PM,10.9,7.0,84,30.03,-9999.0,Variable,4.6,-,N/A,,Unknown,0,2013-01-26 01:56:00
9:56 PM,10.9,7.0,84,30.03,-9999.0,South,4.6,-,N/A,,Unknown,190,2013-01-26 02:56:00
10:56 PM,14.0,9.0,80,30.04,-9999.0,South,3.5,-,N/A,,Unknown,180,2013-01-26 03:56:00
11:56 PM,15.1,10.0,80,30.05,-9999.0,South,5.8,-,N/A,,Unknown,170,2013-01-26 04:56:00